createdAt,value
2023-07-16T00:00:22.052Z,20.48
2023-07-16T00:02:48.604Z,20.55
2023-07-16T00:05:15.602Z,20.41
2023-07-16T00:07:42.345Z,20.41
2023-07-16T00:10:09.184Z,20.45
2023-07-16T00:12:35.972Z,20.47
2023-07-16T00:15:02.342Z,20.49
2023-07-16T00:17:28.719Z,20.43
2023-07-16T00:19:55.550Z,20.56
2023-07-16T00:22:22.074Z,20.49
2023-07-16T00:24:48.615Z,20.58
2023-07-16T00:27:15.402Z,20.60
2023-07-16T00:29:41.812Z,20.58
2023-07-16T00:32:08.355Z,20.62
2023-07-16T00:34:35.277Z,20.68
2023-07-16T00:37:03.717Z,20.65
2023-07-16T00:39:31.296Z,20.60
2023-07-16T00:41:57.744Z,20.61
2023-07-16T00:44:24.229Z,20.58
2023-07-16T00:46:51.971Z,20.42
2023-07-16T00:49:18.493Z,20.46
2023-07-16T00:51:45.740Z,20.43
2023-07-16T00:54:12.681Z,20.53
2023-07-16T00:56:39.352Z,20.41
2023-07-16T00:59:05.731Z,20.34
2023-07-16T01:01:32.534Z,20.22
2023-07-16T01:03:59.177Z,20.24
2023-07-16T01:06:48.692Z,20.18
2023-07-16T01:09:19.874Z,20.01
2023-07-16T01:11:47.653Z,19.92
2023-07-16T01:14:17.402Z,19.93
2023-07-16T01:16:44.325Z,19.92
2023-07-16T01:19:11.073Z,20.02
2023-07-16T01:21:58.728Z,19.97
2023-07-16T01:24:58.385Z,19.77
2023-07-16T01:27:53.473Z,19.58
2023-07-16T01:30:20.375Z,19.43
2023-07-16T01:32:47.464Z,19.41
2023-07-16T01:35:15.479Z,19.42
2023-07-16T01:37:43.004Z,19.50
2023-07-16T01:40:10.308Z,19.50
2023-07-16T01:42:37.141Z,19.50
2023-07-16T01:45:04.336Z,19.35
2023-07-16T01:47:47.641Z,19.29
2023-07-16T01:50:14.116Z,19.34
2023-07-16T01:52:40.907Z,19.46
2023-07-16T01:55:08.181Z,19.44
2023-07-16T01:57:34.561Z,19.41
2023-07-16T02:00:01.420Z,19.42
2023-07-16T02:02:27.935Z,19.35
2023-07-16T02:04:54.393Z,19.27
2023-07-16T02:07:21.140Z,19.26
2023-07-16T02:09:47.517Z,19.21
2023-07-16T02:12:13.921Z,19.31
2023-07-16T02:14:40.698Z,19.25
2023-07-16T02:17:07.096Z,18.99
2023-07-16T02:19:33.496Z,19.10
2023-07-16T02:22:00.339Z,19.06
2023-07-16T02:24:26.786Z,19.04
2023-07-16T02:26:53.155Z,19.02
2023-07-16T02:29:19.949Z,18.90
2023-07-16T02:31:47.665Z,18.82
2023-07-16T02:34:14.198Z,18.82
2023-07-16T02:36:40.965Z,18.75
2023-07-16T02:39:07.363Z,18.77
2023-07-16T02:41:33.738Z,18.65
2023-07-16T02:44:06.724Z,18.56
2023-07-16T02:46:33.887Z,18.49
2023-07-16T02:49:00.721Z,18.53
2023-07-16T02:51:27.240Z,18.47
2023-07-16T02:53:53.654Z,18.29
2023-07-16T02:56:20.684Z,18.32
2023-07-16T02:58:47.063Z,18.37
2023-07-16T03:01:13.736Z,18.37
2023-07-16T03:03:40.637Z,18.59
2023-07-16T03:06:08.560Z,18.65
2023-07-16T03:08:36.313Z,18.76
2023-07-16T03:11:02.764Z,18.80
2023-07-16T03:13:29.302Z,18.74
2023-07-16T03:15:56.205Z,18.80
2023-07-16T03:18:22.607Z,18.92
2023-07-16T03:20:49.105Z,19.01
2023-07-16T03:23:15.829Z,19.04
2023-07-16T03:25:42.208Z,18.69
2023-07-16T03:28:08.614Z,18.72
2023-07-16T03:30:35.446Z,18.61
2023-07-16T03:33:01.830Z,18.57
2023-07-16T03:35:29.897Z,18.62
2023-07-16T03:37:56.783Z,18.47
2023-07-16T03:40:26.293Z,18.53
2023-07-16T03:42:53.115Z,18.60
2023-07-16T03:45:20.372Z,18.45
2023-07-16T03:47:47.039Z,18.44
2023-07-16T03:50:13.628Z,18.35
2023-07-16T03:52:40.378Z,18.31
2023-07-16T03:55:07.949Z,18.50
2023-07-16T03:57:34.729Z,18.69
2023-07-16T04:00:01.980Z,18.71
2023-07-16T04:02:28.407Z,18.43
2023-07-16T04:04:54.840Z,18.29
2023-07-16T04:07:21.611Z,18.45
2023-07-16T04:09:48.415Z,18.32
2023-07-16T04:12:14.785Z,18.06
2023-07-16T04:14:42.177Z,18.16
2023-07-16T04:17:08.701Z,18.24
2023-07-16T04:19:35.150Z,18.24
2023-07-16T04:22:02.242Z,17.84
2023-07-16T04:24:28.710Z,18.17
2023-07-16T04:26:55.888Z,18.30
2023-07-16T04:29:22.954Z,18.24
2023-07-16T04:31:49.359Z,18.13
2023-07-16T04:34:15.760Z,18.07
2023-07-16T04:36:43.850Z,18.01
2023-07-16T04:39:10.486Z,18.10
2023-07-16T04:41:37.285Z,17.99
2023-07-16T04:44:04.188Z,18.08
2023-07-16T04:46:31.421Z,18.09
2023-07-16T04:48:58.051Z,17.94
2023-07-16T04:51:25.148Z,17.93
2023-07-16T04:53:52.090Z,17.91
2023-07-16T04:56:18.846Z,18.06
2023-07-16T04:58:46.495Z,18.15
2023-07-16T05:01:12.919Z,18.53
2023-07-16T05:03:39.367Z,18.65
2023-07-16T05:06:06.490Z,18.67
2023-07-16T05:08:32.946Z,18.57
2023-07-16T05:11:00.153Z,18.42
2023-07-16T05:13:27.060Z,18.50
2023-07-16T05:15:53.639Z,18.51
2023-07-16T05:18:20.338Z,18.48
2023-07-16T05:20:50.487Z,18.12
2023-07-16T05:23:16.867Z,17.95
2023-07-16T05:25:50.234Z,17.72
2023-07-16T05:28:18.313Z,17.91
2023-07-16T05:30:44.812Z,18.23
2023-07-16T05:33:12.186Z,18.48
2023-07-16T05:35:40.620Z,18.67
2023-07-16T05:38:07.577Z,18.75
2023-07-16T05:40:34.117Z,18.68
2023-07-16T05:43:00.515Z,18.44
2023-07-16T05:45:27.187Z,18.54
2023-07-16T05:47:53.656Z,18.70
2023-07-16T05:50:20.079Z,18.81
2023-07-16T05:52:49.373Z,18.97
2023-07-16T05:55:16.018Z,19.09
2023-07-16T05:57:42.434Z,19.07
2023-07-16T06:00:10.534Z,19.02
2023-07-16T06:02:37.118Z,19.11
2023-07-16T06:05:03.777Z,19.07
2023-07-16T06:07:30.761Z,18.87
2023-07-16T06:09:57.139Z,18.88
2023-07-16T06:12:23.582Z,18.82
2023-07-16T06:14:50.215Z,18.80
2023-07-16T06:17:16.602Z,18.96
2023-07-16T06:19:43.708Z,19.03
2023-07-16T06:22:10.468Z,19.09
2023-07-16T06:24:36.967Z,19.12
2023-07-16T06:27:03.564Z,19.11
2023-07-16T06:29:30.391Z,18.94
2023-07-16T06:31:58.520Z,18.96
2023-07-16T06:34:26.546Z,18.90
2023-07-16T06:36:53.186Z,18.66
2023-07-16T06:39:19.703Z,18.74
2023-07-16T06:41:46.578Z,18.82
2023-07-16T06:44:13.366Z,19.13
2023-07-16T06:46:39.873Z,18.84
2023-07-16T06:49:07.736Z,18.65
2023-07-16T06:51:34.791Z,18.60
2023-07-16T06:54:01.360Z,18.55
2023-07-16T06:56:27.897Z,18.47
2023-07-16T06:58:54.675Z,18.63
2023-07-16T07:01:21.096Z,18.89
2023-07-16T07:03:47.686Z,19.07
2023-07-16T07:06:14.733Z,19.10
2023-07-16T07:08:41.278Z,19.35
2023-07-16T07:11:07.692Z,19.29
2023-07-16T07:13:34.568Z,18.59
2023-07-16T07:16:00.961Z,18.93
2023-07-16T07:18:28.036Z,18.60
2023-07-16T07:20:54.514Z,18.51
2023-07-16T07:23:20.972Z,18.44
2023-07-16T07:25:53.980Z,18.17
2023-07-16T07:28:21.088Z,18.32
2023-07-16T07:30:47.756Z,18.69
2023-07-16T07:33:14.846Z,18.94
2023-07-16T07:35:41.298Z,18.89
2023-07-16T07:38:08.362Z,18.90
2023-07-16T07:40:34.810Z,18.31
2023-07-16T07:43:01.308Z,18.20
2023-07-16T07:45:28.350Z,18.31
2023-07-16T07:47:54.803Z,18.26
2023-07-16T07:50:21.802Z,18.36
2023-07-16T07:52:48.210Z,17.98
2023-07-16T07:55:14.996Z,18.02
2023-07-16T07:57:41.783Z,17.78
2023-07-16T08:00:12.504Z,17.75
2023-07-16T08:02:39.489Z,17.55
2023-07-16T08:05:07.082Z,17.75
2023-07-16T08:07:33.769Z,17.76
2023-07-16T08:10:00.240Z,18.19
2023-07-16T08:12:27.028Z,18.60
2023-07-16T08:14:53.453Z,18.76
2023-07-16T08:17:22.043Z,19.03
2023-07-16T08:19:50.596Z,19.13
2023-07-16T08:22:17.026Z,19.07
2023-07-16T08:24:43.454Z,19.65
2023-07-16T08:27:10.534Z,19.15
2023-07-16T08:29:37.559Z,19.19
2023-07-16T08:32:04.320Z,19.10
2023-07-16T08:34:31.114Z,19.67
2023-07-16T08:36:57.482Z,19.74
2023-07-16T08:39:26.021Z,19.64
2023-07-16T08:41:53.353Z,20.07
2023-07-16T08:44:20.954Z,20.29
2023-07-16T08:46:47.584Z,21.23
2023-07-16T08:49:14.701Z,21.73
2023-07-16T08:51:41.897Z,21.80
2023-07-16T08:54:08.397Z,21.18
2023-07-16T08:56:35.311Z,21.89
2023-07-16T08:59:02.140Z,22.05
2023-07-16T09:01:28.799Z,22.78
2023-07-16T09:03:55.675Z,22.87
2023-07-16T09:06:22.184Z,22.37
2023-07-16T09:08:48.698Z,22.86
2023-07-16T09:11:15.541Z,22.52
2023-07-16T09:13:45.946Z,23.50
2023-07-16T09:16:12.333Z,22.80
2023-07-16T09:18:41.504Z,22.13
2023-07-16T09:21:07.948Z,22.78
2023-07-16T09:23:34.884Z,22.78
2023-07-16T09:26:01.757Z,22.56
2023-07-16T09:28:28.241Z,22.69
2023-07-16T09:30:54.814Z,23.53
2023-07-16T09:33:24.281Z,25.08
2023-07-16T09:35:51.327Z,25.43
2023-07-16T09:38:19.359Z,24.51
2023-07-16T09:40:46.849Z,25.27
2023-07-16T09:43:14.340Z,25.88
2023-07-16T09:45:43.364Z,26.43
2023-07-16T09:48:10.690Z,24.97
2023-07-16T09:50:38.102Z,24.57
2023-07-16T09:53:05.771Z,24.60
2023-07-16T09:55:35.517Z,24.78
2023-07-16T09:58:07.231Z,23.09
2023-07-16T10:00:35.526Z,23.23
2023-07-16T10:03:02.447Z,23.81
2023-07-16T10:05:29.778Z,24.13
2023-07-16T10:08:00.826Z,24.79
2023-07-16T10:10:41.435Z,24.20
2023-07-16T10:13:09.534Z,24.58
2023-07-16T10:15:35.951Z,25.67
2023-07-16T10:18:02.479Z,26.46
2023-07-16T10:20:31.485Z,26.15
2023-07-16T10:22:58.131Z,25.42
2023-07-16T10:25:27.370Z,26.24
2023-07-16T10:27:55.876Z,26.67
2023-07-16T10:30:22.780Z,26.55
2023-07-16T10:32:52.419Z,26.42
2023-07-16T10:35:18.912Z,27.67
2023-07-16T10:37:45.644Z,27.87
2023-07-16T10:40:13.298Z,25.99
2023-07-16T10:42:44.295Z,26.75
2023-07-16T10:45:11.802Z,26.78
2023-07-16T10:47:51.639Z,25.49
2023-07-16T10:50:22.291Z,26.43
2023-07-16T10:52:55.522Z,25.95
2023-07-16T10:55:23.629Z,26.37
2023-07-16T10:57:51.152Z,27.47
2023-07-16T11:00:18.801Z,26.74
2023-07-16T11:02:46.021Z,26.77
2023-07-16T11:05:13.412Z,25.91
2023-07-16T11:07:55.056Z,27.15
2023-07-16T11:10:22.125Z,26.87
2023-07-16T11:12:54.532Z,28.11
2023-07-16T11:15:41.263Z,27.94
2023-07-16T11:18:09.436Z,27.98
2023-07-16T11:20:35.905Z,27.06
2023-07-16T11:23:02.655Z,25.71
2023-07-16T11:25:30.078Z,25.79
2023-07-16T11:27:59.411Z,24.99
2023-07-16T11:30:27.224Z,26.64
2023-07-16T11:32:54.311Z,27.16
2023-07-16T11:35:21.622Z,27.53
2023-07-16T11:37:49.148Z,27.32
2023-07-16T11:40:20.596Z,28.29
2023-07-16T11:42:48.090Z,28.52
2023-07-16T11:45:20.751Z,29.16
2023-07-16T11:47:47.589Z,28.77
2023-07-16T11:50:14.557Z,27.70
2023-07-16T11:52:42.555Z,26.87
2023-07-16T11:55:09.270Z,27.34
2023-07-16T11:57:36.384Z,25.79
2023-07-16T12:00:05.544Z,25.52
2023-07-16T12:02:32.108Z,24.78
2023-07-16T12:04:58.558Z,26.21
2023-07-16T12:07:37.396Z,27.64
2023-07-16T12:10:07.995Z,29.48
2023-07-16T12:12:39.692Z,30.45
2023-07-16T12:15:09.992Z,29.31
2023-07-16T12:17:36.770Z,25.70
2023-07-16T12:20:05.511Z,23.33
2023-07-16T12:22:32.524Z,24.73
2023-07-16T12:24:58.963Z,26.27
2023-07-16T12:27:25.707Z,26.85
2023-07-16T12:29:53.375Z,26.46
2023-07-16T12:32:21.252Z,25.74
2023-07-16T12:34:48.270Z,26.08
2023-07-16T12:37:14.691Z,24.73
2023-07-16T12:39:41.113Z,24.89
2023-07-16T12:42:07.969Z,26.22
2023-07-16T12:44:34.326Z,27.22
2023-07-16T12:47:01.618Z,27.00
2023-07-16T12:49:28.006Z,27.11
2023-07-16T12:51:54.376Z,27.04
2023-07-16T12:54:21.151Z,26.96
2023-07-16T12:56:47.544Z,27.48
2023-07-16T12:59:13.914Z,27.87
2023-07-16T13:01:40.702Z,28.95
2023-07-16T13:04:07.421Z,29.58
2023-07-16T13:06:33.878Z,27.84
2023-07-16T13:09:02.381Z,29.55
2023-07-16T13:11:28.834Z,29.82
2023-07-16T13:13:55.230Z,29.37
2023-07-16T13:16:21.953Z,29.17
2023-07-16T13:18:48.431Z,29.33
2023-07-16T13:21:14.877Z,29.33
2023-07-16T13:23:41.685Z,28.62
2023-07-16T13:26:08.039Z,28.98
2023-07-16T13:28:34.504Z,28.63
2023-07-16T13:31:01.362Z,27.85
2023-07-16T13:33:28.035Z,27.62
2023-07-16T13:35:54.419Z,28.07
2023-07-16T13:38:21.394Z,26.24
2023-07-16T13:40:47.791Z,25.96
2023-07-16T13:43:14.229Z,25.74
2023-07-16T13:45:40.982Z,25.47
2023-07-16T13:48:07.353Z,25.57
2023-07-16T13:50:33.731Z,25.89
2023-07-16T13:53:03.011Z,24.98
2023-07-16T13:55:29.860Z,26.08
2023-07-16T13:57:56.722Z,27.10
2023-07-16T14:00:24.129Z,28.06
2023-07-16T14:02:50.670Z,29.59
2023-07-16T14:05:17.253Z,26.59
2023-07-16T14:07:43.977Z,27.49
2023-07-16T14:10:10.752Z,28.06
2023-07-16T14:12:37.146Z,29.24
2023-07-16T14:15:04.445Z,28.20
2023-07-16T14:17:30.831Z,29.00
2023-07-16T14:19:57.222Z,29.06
2023-07-16T14:22:28.030Z,29.82
2023-07-16T14:24:55.006Z,28.78
2023-07-16T14:27:21.558Z,26.73
2023-07-16T14:30:04.367Z,26.29
2023-07-16T14:32:32.856Z,26.30
2023-07-16T14:34:59.954Z,26.73
2023-07-16T14:37:26.529Z,26.58
2023-07-16T14:39:53.363Z,27.04
2023-07-16T14:42:20.123Z,27.22
2023-07-16T14:44:46.497Z,26.90
2023-07-16T14:47:12.873Z,26.93
2023-07-16T14:49:39.887Z,26.27
2023-07-16T14:52:06.595Z,26.77
2023-07-16T14:54:34.951Z,26.54
2023-07-16T14:57:02.411Z,26.50
2023-07-16T14:59:29.030Z,26.75
2023-07-16T15:01:55.403Z,27.23
2023-07-16T15:04:22.537Z,27.21
2023-07-16T15:06:50.896Z,26.55
2023-07-16T15:09:17.757Z,26.54
2023-07-16T15:11:44.558Z,27.03
2023-07-16T15:14:13.180Z,26.74
2023-07-16T15:16:39.982Z,26.48
2023-07-16T15:19:06.961Z,26.57
2023-07-16T15:21:33.382Z,27.18
2023-07-16T15:23:59.969Z,27.12
2023-07-16T15:26:26.752Z,27.02
2023-07-16T15:28:53.120Z,27.02
2023-07-16T15:31:20.822Z,27.85
2023-07-16T15:33:47.757Z,27.47
2023-07-16T15:36:14.815Z,27.14
2023-07-16T15:38:41.444Z,27.37
2023-07-16T15:41:08.332Z,26.55
2023-07-16T15:43:34.727Z,26.46
2023-07-16T15:46:01.104Z,26.53
2023-07-16T15:48:28.071Z,26.06
2023-07-16T15:50:59.173Z,25.53
2023-07-16T15:53:25.671Z,25.95
2023-07-16T15:55:52.508Z,26.37
2023-07-16T15:58:22.125Z,26.60
2023-07-16T16:00:48.875Z,27.10
2023-07-16T16:03:15.873Z,27.28
2023-07-16T16:05:42.336Z,27.69
2023-07-16T16:08:13.916Z,28.17
2023-07-16T16:10:40.770Z,27.13
2023-07-16T16:13:07.158Z,26.11
2023-07-16T16:15:33.535Z,25.92
2023-07-16T16:18:00.641Z,26.56
2023-07-16T16:20:27.136Z,25.73
2023-07-16T16:22:53.609Z,25.70
2023-07-16T16:25:22.227Z,25.68
2023-07-16T16:27:48.597Z,26.06
2023-07-16T16:30:15.152Z,24.90
2023-07-16T16:32:42.631Z,25.36
2023-07-16T16:35:09.416Z,25.96
2023-07-16T16:37:35.768Z,26.10
2023-07-16T16:40:06.743Z,24.89
2023-07-16T16:42:33.354Z,25.16
2023-07-16T16:45:02.693Z,25.47
2023-07-16T16:47:31.142Z,25.29
2023-07-16T16:49:57.499Z,24.77
2023-07-16T16:52:23.863Z,24.91
2023-07-16T16:54:50.901Z,25.28
2023-07-16T16:57:17.528Z,24.77
2023-07-16T16:59:44.115Z,25.35
2023-07-16T17:02:10.836Z,25.91
2023-07-16T17:04:39.391Z,26.48
2023-07-16T17:07:08.356Z,25.89
2023-07-16T17:09:35.531Z,25.88
2023-07-16T17:12:02.463Z,25.49
2023-07-16T17:14:28.880Z,25.21
2023-07-16T17:16:56.316Z,24.97
2023-07-16T17:19:23.780Z,25.12
2023-07-16T17:21:50.427Z,25.00
2023-07-16T17:24:17.411Z,24.83
2023-07-16T17:26:43.820Z,24.99
2023-07-16T17:29:10.369Z,24.92
2023-07-16T17:31:37.242Z,24.91
2023-07-16T17:34:03.861Z,24.67
2023-07-16T17:36:30.868Z,24.64
2023-07-16T17:38:57.645Z,24.98
2023-07-16T17:41:24.075Z,24.90
2023-07-16T17:43:50.442Z,25.31
2023-07-16T17:46:17.635Z,25.07
2023-07-16T17:48:44.286Z,25.27
2023-07-16T17:51:12.809Z,25.25
2023-07-16T17:53:39.924Z,25.19
2023-07-16T17:56:06.331Z,25.20
2023-07-16T17:58:35.742Z,25.07
2023-07-16T18:01:02.953Z,25.47
2023-07-16T18:03:29.559Z,25.32
2023-07-16T18:05:56.088Z,25.46
2023-07-16T18:08:24.097Z,25.26
2023-07-16T18:10:50.605Z,25.38
2023-07-16T18:13:17.344Z,25.33
2023-07-16T18:15:44.072Z,25.16
2023-07-16T18:18:10.713Z,24.96
2023-07-16T18:20:37.567Z,24.57
2023-07-16T18:23:04.905Z,24.12
2023-07-16T18:25:31.376Z,23.88
2023-07-16T18:27:59.287Z,23.93
2023-07-16T18:30:26.099Z,24.10
2023-07-16T18:32:52.547Z,23.89
2023-07-16T18:35:19.458Z,23.54
2023-07-16T18:37:46.423Z,23.29
2023-07-16T18:40:13.321Z,23.35
2023-07-16T18:42:39.780Z,23.18
2023-07-16T18:45:07.766Z,22.80
2023-07-16T18:47:34.232Z,22.91
2023-07-16T18:50:00.731Z,22.80
2023-07-16T18:52:27.646Z,22.63
2023-07-16T18:54:56.015Z,22.46
2023-07-16T18:57:22.486Z,22.35
2023-07-16T18:59:49.250Z,22.16
2023-07-16T19:02:15.874Z,22.05
2023-07-16T19:04:42.308Z,21.94
2023-07-16T19:07:09.021Z,21.66
2023-07-16T19:09:35.511Z,21.44
2023-07-16T19:12:01.892Z,21.37
2023-07-16T19:14:28.661Z,21.26
2023-07-16T19:16:55.067Z,21.20
2023-07-16T19:19:21.507Z,21.20
2023-07-16T19:21:48.314Z,21.28
2023-07-16T19:24:14.720Z,21.21
2023-07-16T19:26:41.516Z,21.09
2023-07-16T19:29:08.333Z,20.94
2023-07-16T19:31:34.797Z,20.89
2023-07-16T19:34:01.495Z,20.86
2023-07-16T19:36:28.236Z,20.84
2023-07-16T19:38:54.602Z,20.70
2023-07-16T19:41:20.991Z,20.64
2023-07-16T19:43:47.797Z,20.48
2023-07-16T19:46:14.281Z,20.30
2023-07-16T19:48:40.768Z,20.17
2023-07-16T19:51:07.637Z,20.17
2023-07-16T19:53:34.034Z,20.16
2023-07-16T19:56:01.208Z,20.19
2023-07-16T19:58:28.229Z,20.16
2023-07-16T20:00:55.531Z,20.09
2023-07-16T20:03:22.002Z,20.07
2023-07-16T20:05:48.813Z,20.08
2023-07-16T20:08:16.545Z,19.88
2023-07-16T20:10:46.554Z,19.87
2023-07-16T20:13:14.428Z,19.83
2023-07-16T20:15:43.721Z,19.80
2023-07-16T20:18:13.649Z,19.75
2023-07-16T20:20:41.038Z,19.64
2023-07-16T20:23:07.810Z,19.56
2023-07-16T20:25:34.218Z,19.47
2023-07-16T20:28:00.900Z,19.39
2023-07-16T20:30:27.336Z,19.36
2023-07-16T20:32:55.652Z,19.32
2023-07-16T20:35:22.862Z,19.26
2023-07-16T20:37:49.509Z,19.10
2023-07-16T20:40:16.322Z,19.05
2023-07-16T20:42:45.457Z,18.99
2023-07-16T20:45:17.147Z,19.08
2023-07-16T20:47:44.794Z,18.95
2023-07-16T20:50:12.696Z,18.98
2023-07-16T20:52:40.821Z,18.93
2023-07-16T20:55:11.170Z,18.87
2023-07-16T20:57:39.990Z,18.81
2023-07-16T21:00:17.446Z,18.75
2023-07-16T21:02:51.875Z,18.69
2023-07-16T21:05:19.222Z,18.60
2023-07-16T21:07:49.169Z,18.58
2023-07-16T21:10:16.318Z,18.46
2023-07-16T21:12:43.627Z,18.35
2023-07-16T21:15:14.151Z,18.25
2023-07-16T21:17:40.638Z,18.24
2023-07-16T21:20:10.175Z,18.24
2023-07-16T21:22:43.927Z,18.27
2023-07-16T21:25:11.213Z,18.32
2023-07-16T21:27:42.012Z,18.31
2023-07-16T21:30:09.274Z,18.21
2023-07-16T21:32:35.868Z,18.07
2023-07-16T21:35:02.269Z,18.11
2023-07-16T21:37:29.031Z,18.08
2023-07-16T21:39:57.777Z,18.08
2023-07-16T21:42:25.180Z,18.08
2023-07-16T21:44:52.068Z,17.97
2023-07-16T21:47:18.469Z,17.96
2023-07-16T21:49:46.191Z,18.04
2023-07-16T21:52:12.968Z,18.02
2023-07-16T21:54:39.372Z,17.95
2023-07-16T21:57:06.497Z,17.95
2023-07-16T21:59:33.206Z,17.93
2023-07-16T22:01:59.768Z,17.88
2023-07-16T22:04:26.476Z,17.87
2023-07-16T22:06:53.336Z,17.69
2023-07-16T22:09:19.970Z,17.67
2023-07-16T22:11:46.936Z,17.64
2023-07-16T22:14:13.784Z,17.64
2023-07-16T22:16:40.218Z,17.63
2023-07-16T22:19:25.395Z,17.61
2023-07-16T22:21:55.108Z,17.65
2023-07-16T22:24:21.484Z,17.58
2023-07-16T22:26:47.857Z,17.57
2023-07-16T22:29:14.570Z,17.49
2023-07-16T22:31:40.990Z,17.44
2023-07-16T22:34:08.301Z,17.38
2023-07-16T22:36:35.059Z,17.19
2023-07-16T22:39:01.428Z,17.11
2023-07-16T22:41:29.020Z,17.09
2023-07-16T22:43:56.196Z,17.12
2023-07-16T22:46:23.314Z,17.14
2023-07-16T22:48:54.034Z,17.14
2023-07-16T22:51:20.972Z,17.15
2023-07-16T22:53:47.479Z,17.21
2023-07-16T22:56:13.886Z,17.23
2023-07-16T22:58:41.033Z,17.16
2023-07-16T23:01:09.194Z,17.14
2023-07-16T23:03:36.425Z,17.08
2023-07-16T23:06:03.808Z,17.11
2023-07-16T23:08:30.269Z,17.15
2023-07-16T23:10:57.304Z,17.11
2023-07-16T23:13:24.148Z,16.98
2023-07-16T23:15:50.649Z,16.95
2023-07-16T23:18:17.069Z,16.90
2023-07-16T23:20:44.286Z,16.86
2023-07-16T23:23:10.783Z,16.76
2023-07-16T23:25:41.850Z,16.78
2023-07-16T23:28:08.881Z,16.74
2023-07-16T23:30:36.528Z,16.77
2023-07-16T23:33:04.785Z,16.75
2023-07-16T23:35:31.924Z,16.67
2023-07-16T23:37:58.426Z,16.65
2023-07-16T23:40:25.229Z,16.66
2023-07-16T23:42:51.609Z,16.65
2023-07-16T23:45:18.009Z,16.53
2023-07-16T23:47:44.928Z,16.52
2023-07-16T23:50:11.420Z,16.53
2023-07-16T23:52:37.968Z,16.52
2023-07-16T23:55:05.381Z,16.52
2023-07-16T23:57:37.036Z,16.34
